To NAV CANADA Home Page Login to a new session Search on AWWS site Feedback and Comments Disclaimer Vers la page française équivalente Tips FAQ What's new on the site To the Forecasts and Observations / NOTAM section To "File a Flight Plan" website Publications and other links Update of the User's profile FIC Telephone Numbers My Weather Data Folder Route Weather Data Regional Weather Data Local Weather Data To the Forecasts and Observations / NOTAM section
Request Generated 03/31/2015 at 08:24:18 UTC . Weather information available at that time is displayed.

METAR/TAF

MONCTON/GREATER MONCTON INTL/NB    

METAR CYQM 310800Z 16007KT 6SM -SHSN OVC017 M01/M02 A2953 RMK SC8
SLP003=
METAR CYQM 310700Z 15008KT 15SM -SHSN SCT012 OVC024 M01/M03 A2955 RMK
SC3SC5 SLP009=
METAR CYQM 310600Z 15007KT 15SM -SHSN BKN028 OVC049 M01/M04 A2958 RMK
SC5SC3 SLP018=

TAF CYQM 310538Z 3106/0106 16008KT P6SM -SN SCT015 OVC025 TEMPO
3106/3110 5SM -SN OVC015 PROB30 3106/3110 2SM -SN BR OVC008
FM311000 18005KT P6SM BKN012 OVC025
BECMG 3113/3115 25010KT
FM311700 25010G20KT P6SM -SHRA BKN030
FM312200 27010G20KT P6SM BKN040
FM010200 28007KT P6SM FEW040
RMK NXT FCST BY 311200Z=
Your time UTC time
Weather data provided by Environment Canada and NAV CANADA